< Typhoon 197821 1978 Season Typhoon 197823 >
Typhoon 197822 (MAMIE)
General InformationTrack Information on Google MapsDetailed Wind Information || Disaster Info.ResourceGoogle EarthGE AnimationAtom FeedGeoJSON
Detalied Best Track (Time Zone = UTC)
Year Month Day Hour Lat. Long. Pressure (hPa) Wind (kt) Class Image Chart
1978 9 30 00 19.1 152.5 996 0 2 -- Chart
1978 9 30 06 19.3 152.1 996 0 2 -- Chart
1978 9 30 12 20.0 152.9 994 35 3 -- Chart
1978 9 30 18 20.7 153.2 992 40 3 -- Chart
1978 10 1 00 21.5 153.0 990 40 3 -- Chart
1978 10 1 06 22.4 152.2 990 40 3 -- Chart
1978 10 1 12 23.3 151.3 985 40 3 -- Chart
1978 10 1 18 24.2 150.6 985 45 3 -- Chart
1978 10 2 00 24.9 150.2 985 50 4 -- Chart
1978 10 2 06 25.7 150.0 980 50 4 -- Chart
1978 10 2 12 26.7 150.0 975 50 4 -- Chart
1978 10 2 18 27.8 150.3 975 55 4 -- Chart
1978 10 3 00 29.0 150.9 970 60 4 -- Chart
1978 10 3 06 30.3 151.8 960 70 5 -- Chart
1978 10 3 12 32.2 152.9 960 65 5 -- Chart
1978 10 3 18 34.7 155.0 960 65 5 -- Chart
1978 10 4 00 37.0 157.6 965 60 4 -- Chart
1978 10 4 06 38.8 160.6 970 55 4 -- Chart
1978 10 4 12 40.6 163.6 975 45 3 -- Chart
1978 10 4 18 42.0 167.1 980 40 3 -- Chart
1978 10 5 00 43.0 171.0 980 40 3 -- Chart
1978 10 5 06 43.0 175.0 980 45 3 -- Chart
1978 10 5 12 43.0 180.0 984 0 6 -- Chart
Japan Meteorological Agency Best Track Data | Correction Date : 1992-10-21
< Typhoon 197821 1978 Season Typhoon 197823 >

Help